KMQY

Smyrna Airport

Smyrna, Tennessee, USA
METAR KMQY 150256Z AUTO 13004KT 10SM CLR 24/21 A3004 RMK AO2 SLP058 T02390206 53010
Observed Flight Rules
Aug-15 @ 02:56 UTC (39 minutes ago) Visual Flight Rules
Wind Visibility Clouds
130° at 4 knots 10 miles
  • Clear skies
Temperatures Readings
Current 24°C / 75°F
Dewpoint 21°C / 70°F
Humidity 83%
Altimeter 30.04" Hg
Pressure 1005.8 hPa
Elevation 166
METAR KMQY 150256Z AUTO 13004KT 10SM CLR 24/21 A3004 RMK AO2 SLP058 T02390206 53010
Observed Flight Rules
Aug-15 @ 02:56 UTC
(39 minutes ago)
VFR
Wind Visibility
130° at 4 knots 10 miles
Clouds
  • Clear skies
Temperature Dewpoint
24°C / 75°F 21°C / 70°F
Humidity Altimeter Pressure
83% 30.04" Hg 1005.8 hPa